Skip to main content

NOAA/GLERL Met Station at Muskegon, MI

Previous 5 days (top of hour only)
See also Previous 3 Hours (2 minute increments)
Jump down to Data
Switch to [English][Metric]
Zoom: Click and drag, Pan: shift-click and drag, Unzoom: double-click, Unzoom All






Note: Speed = mean wind during 2-minute period at top of hour,
Gust = max wind during 2-minute period at top of hour,
Peak = max wind during entire hour.
• See also 5-day windrose plot


NOAA/GLERL Met Station at Muskegon, MI

Previous 5 days (top of hour only)
See also Previous 3 Hours (2 minute increments)
Jump up to Graphs
Switch to [English][Metric]
                  Wind  Wind  Wind   Air   Dew   Rel     Sta   PAR
                   Spd   Gst   Dir  Temp    Pt   Hum    Pres uE/m2/
YYYY-MM-DD   EDT   kts   kts   deg     F     F     %   in Hg   sec
2022-05-19 23:00  17.1  20.8   172  71.6  59.4  64.9   28.85     2
2022-05-19 22:00  12.1  15.4   139  68.9  60.9  75.2   28.85     2
2022-05-19 21:00  10.7  12.4   121  68.2  59.9  74.5   28.88    15
2022-05-19 20:00   6.2   6.6   118  69.1  58.9  69.7   28.90   184
2022-05-19 19:00   6.4   8.6   158  68.5  58.6  70.2   28.92   411
2022-05-19 18:00  16.9  17.5   180  62.2  58.1  86.1   28.95   593
2022-05-19 17:00  11.9  13.0   186  58.8  55.9  90.0   28.99   785
2022-05-19 16:00  13.2  15.2   187  55.6  53.8  93.7   29.02   699
2022-05-19 15:00  11.1  12.8   201  54.9  53.1  93.6   29.03   758
2022-05-19 14:00  10.1  12.4   193  54.9  52.6  91.9   29.04  1287
2022-05-19 13:00  14.8  17.7   201  54.3  51.7  90.6   29.04  1484
2022-05-19 12:00  14.0  15.7   197  54.0  51.1  89.9   29.06  1824
2022-05-19 11:00  15.0  16.1   201  51.6  50.8  97.1   29.08   554
2022-05-19 10:00  17.7  19.2   201  51.6  51.6  99.8   29.06   274
2022-05-19 09:00  13.2  15.6   199  51.3  51.2  99.8   29.07   569
2022-05-19 08:00  10.7  12.4   192  48.7  48.7  99.9   29.07   620
2022-05-19 07:00  13.6  14.4   206  48.2  48.2  99.9   29.08    89
2022-05-19 06:00   9.3  10.3   209  48.0  48.0  99.9   29.08     3
2022-05-19 05:00   8.7   9.7   198  47.7  47.6  99.9   29.06     2
2022-05-19 04:00   6.2   6.8   254  48.6  48.5  99.8   29.08     2
2022-05-19 03:00   6.6   7.4   321  49.1  49.0  99.6   29.10     2
2022-05-19 02:00   9.1   9.9   340  49.8  49.6  99.3   29.09     2
2022-05-19 01:00   2.7   3.1   341  52.3  52.0  98.7   29.10     2
2022-05-19 00:00   1.7   2.9   350  52.5  52.0  98.2   29.11     2
2022-05-18 23:00   3.3   4.9    93  53.1  52.5  97.8   29.12     2
2022-05-18 22:00   4.7   6.2    96  52.7  52.0  97.4   29.11     2
2022-05-18 21:00   6.6   9.5    98  52.5  51.7  97.1   29.11     6
2022-05-18 20:00   9.7  12.2   105  52.5  51.5  96.4   29.11    39
2022-05-18 19:00  10.5  12.4   116  52.5  51.1  94.7   29.13   106
2022-05-18 18:00  10.1  12.8   116  52.5  49.8  90.3   29.14   142
2022-05-18 17:00   9.1  12.8   120  52.7  49.7  89.3   29.15   293
2022-05-18 16:00  10.1  12.8   111  53.1  48.4  84.0   29.18   213
2022-05-18 15:00  11.3  16.1   115  52.9  48.4  84.5   29.20   296
2022-05-18 14:00  10.5  15.0   121  52.9  47.1  80.6   29.24   203
2022-05-18 13:00   8.9  11.9   113  52.0  48.1  86.4   29.27   291
2022-05-18 12:00   5.8   8.2   122  50.9  46.4  84.5   29.32   236
2022-05-18 11:00   4.3   6.6   107  52.2  45.0  76.2   29.31   155
2022-05-18 10:00   8.4  10.3   104  51.8  43.1  71.9   29.32   192
2022-05-18 09:00   8.7  11.3   117  50.7  42.2  72.2   29.34    82
2022-05-18 08:00  10.5  14.4   136  50.0  39.7  67.3   29.36    54
2022-05-18 07:00   7.6   9.1   110  50.2  40.4  68.8   29.39    18
2022-05-18 06:00   7.6  10.9   123  51.4  37.0  57.4   29.39     2
2022-05-18 05:00   9.5  12.2   118  52.7  34.9  50.4   29.37     2
2022-05-18 04:00   8.9  10.5   127  53.4  34.2  47.8   29.36     2
2022-05-18 03:00   9.1  12.6   108  52.9  40.1  61.5   29.36     2
2022-05-18 02:00   8.2  10.1    95  53.2  40.5  61.7   29.37     2
2022-05-18 01:00   4.1   4.5   127  51.8  41.2  66.7   29.41     2
2022-05-18 00:00   4.5   4.9    92  52.7  39.0  59.3   29.42     2
2022-05-17 23:00   3.5   4.5    67  53.4  36.7  52.7   29.43     2
2022-05-17 22:00   6.8   8.4    57  54.7  36.6  50.1   29.40     2
2022-05-17 21:00   4.7   5.2    23  54.3  42.6  64.3   29.41    22
2022-05-17 20:00   9.3   9.9   347  54.3  46.3  74.1   29.41   595
2022-05-17 19:00   8.6   9.1   330  55.2  46.3  71.5   29.42  1275
2022-05-17 18:00   9.7  10.5   343  54.7  42.5  63.1   29.44   874
2022-05-17 17:00  10.3  11.1   342  55.2  40.8  57.9   29.44  1235
2022-05-17 16:00   9.7  10.9   344  54.5  40.1  58.0   29.46  1318
2022-05-17 15:00  10.5  11.7   330  53.1  43.5  69.6   29.47  1195
2022-05-17 14:00  11.9  13.4   334  54.5  42.5  63.5   29.47  1610
2022-05-17 13:00  13.8  15.0   326  54.0  41.0  61.2   29.46  1745
2022-05-17 12:00  14.0  15.0   339  52.9  42.5  67.5   29.45  1725
2022-05-17 11:00  11.9  13.4   334  52.9  42.0  66.2   29.45  1682
2022-05-17 10:00  12.4  13.0   335  51.8  43.0  71.5   29.43  1604
2022-05-17 09:00   2.9   5.8     3  53.2  37.1  54.0   29.41  1442
2022-05-17 08:00   1.2   1.7    16  53.6  36.3  51.5   29.39  1159
2022-05-17 07:00   3.5   3.7    57  46.9  39.5  75.1   29.37   491
2022-05-17 06:00   1.0   1.2   120  47.8  38.1  68.7   29.35     3
2022-05-17 05:00   4.7   6.0    72  48.4  38.0  67.0   29.33     2
2022-05-17 04:00   8.9  11.7    83  50.2  35.5  56.8   29.31     2
2022-05-17 03:00   7.4   9.7    68  50.4  37.5  61.1   29.31     2
2022-05-17 02:00  11.1  13.8    64  52.3  38.4  58.6   29.30     2
2022-05-17 01:00  12.2  14.8    49  53.1  40.3  61.5   29.29     2
2022-05-17 00:00  10.7  12.4    31  54.7  40.2  57.8   29.26     2
2022-05-16 23:00   5.8   7.2   352  54.5  44.9  69.6   29.25     2
2022-05-16 22:00   2.7   3.5   328  54.5  44.6  68.8   29.22     2
2022-05-16 21:00   1.6   2.7   196  54.7  44.9  69.2   29.20    30
2022-05-16 20:00   3.9   4.3   228  55.0  45.8  70.7   29.19   394
2022-05-16 19:00   8.6   9.5   212  55.8  47.6  73.8   29.19   582
2022-05-16 18:00   9.9  10.5   205  58.1  47.7  68.1   29.18   766
2022-05-16 17:00   7.2   8.0   209  59.2  47.4  64.5   29.19  1510
2022-05-16 16:00   8.4   9.3   213  57.9  47.2  67.2   29.19  1921
2022-05-16 15:00   5.8   6.4   247  54.0  45.9  73.8   29.19   658
2022-05-16 14:00   5.4   6.2   286  53.6  46.4  76.2   29.19  1788
2022-05-16 13:00   7.2   8.0   316  54.3  46.4  74.4   29.19  1758
2022-05-16 12:00  11.5  12.2   339  54.0  44.9  71.2   29.20  1720
2022-05-16 11:00   9.5  10.1   326  52.2  44.6  75.1   29.19  1675
2022-05-16 10:00   8.4   9.3   324  52.3  45.7  77.8   29.18  1592
2022-05-16 09:00   9.1  10.3   333  52.2  44.5  74.8   29.18  1417
2022-05-16 08:00   8.7   9.3   320  52.5  45.5  76.8   29.18  1094
2022-05-16 07:00   4.1   5.2   307  52.9  46.2  77.7   29.16   388
2022-05-16 06:00   7.0   7.6   341  52.5  45.4  76.5   29.16     3
2022-05-16 05:00   7.4   8.2   311  54.0  46.5  75.7   29.16     2
2022-05-16 04:00   9.3  10.5   285  52.9  47.5  81.7   29.16     2
2022-05-16 03:00   5.2   6.0   222  50.4  46.1  85.0   29.18     2
2022-05-16 02:00   9.5  11.5   221  51.3  46.0  82.0   29.20     2
2022-05-16 01:00  11.1  13.0   203  53.2  45.0  73.2   29.21     2
2022-05-16 00:00  10.1  11.1   209  53.2  45.6  75.1   29.22     2
2022-05-15 23:00   5.8   7.6   248  53.8  44.8  71.3   29.23     2
2022-05-15 22:00   6.2   6.6   246  52.5  45.2  75.9   29.22     2
2022-05-15 21:00   3.3   3.7   267  52.9  47.3  81.1   29.19     6
2022-05-15 20:00   3.5   4.1   258  54.1  49.2  83.1   29.21    45